sensor_id;sensor_type;location;lat;lon;timestamp;P1;durP1;ratioP1;P2;durP2;ratioP2
20393;SDS011;10356;50.544;9.642;2024-02-16T00:00:22;4.97;;;2.57;;
20393;SDS011;10356;50.544;9.642;2024-02-16T00:02:49;3.78;;;2.28;;
20393;SDS011;10356;50.544;9.642;2024-02-16T00:05:16;3.22;;;1.83;;
20393;SDS011;10356;50.544;9.642;2024-02-16T00:07:42;2.10;;;1.37;;
20393;SDS011;10356;50.544;9.642;2024-02-16T00:10:09;4.43;;;1.90;;
20393;SDS011;10356;50.544;9.642;2024-02-16T00:12:37;5.15;;;2.10;;
20393;SDS011;10356;50.544;9.642;2024-02-16T00:15:06;8.10;;;1.90;;
20393;SDS011;10356;50.544;9.642;2024-02-16T00:17:35;3.07;;;1.80;;
20393;SDS011;10356;50.544;9.642;2024-02-16T00:20:02;5.00;;;2.10;;
20393;SDS011;10356;50.544;9.642;2024-02-16T00:22:32;4.28;;;1.85;;
20393;SDS011;10356;50.544;9.642;2024-02-16T00:24:58;4.50;;;1.75;;
20393;SDS011;10356;50.544;9.642;2024-02-16T00:27:25;2.50;;;1.70;;
20393;SDS011;10356;50.544;9.642;2024-02-16T00:29:52;3.65;;;1.65;;
20393;SDS011;10356;50.544;9.642;2024-02-16T00:32:20;3.83;;;1.80;;
20393;SDS011;10356;50.544;9.642;2024-02-16T00:34:49;3.73;;;1.53;;
20393;SDS011;10356;50.544;9.642;2024-02-16T00:37:17;6.00;;;1.67;;
20393;SDS011;10356;50.544;9.642;2024-02-16T00:39:43;2.90;;;1.40;;
20393;SDS011;10356;50.544;9.642;2024-02-16T00:42:10;6.03;;;1.83;;
20393;SDS011;10356;50.544;9.642;2024-02-16T00:44:36;2.27;;;1.60;;
20393;SDS011;10356;50.544;9.642;2024-02-16T00:47:04;3.47;;;1.70;;
20393;SDS011;10356;50.544;9.642;2024-02-16T00:49:32;4.60;;;1.80;;
20393;SDS011;10356;50.544;9.642;2024-02-16T00:51:58;2.93;;;1.73;;
20393;SDS011;10356;50.544;9.642;2024-02-16T00:54:26;2.30;;;1.63;;
20393;SDS011;10356;50.544;9.642;2024-02-16T00:56:52;4.68;;;2.03;;
20393;SDS011;10356;50.544;9.642;2024-02-16T00:59:19;3.47;;;1.90;;
20393;SDS011;10356;50.544;9.642;2024-02-16T01:01:46;3.40;;;1.58;;
20393;SDS011;10356;50.544;9.642;2024-02-16T01:04:12;6.33;;;2.03;;
20393;SDS011;10356;50.544;9.642;2024-02-16T01:06:40;2.73;;;1.47;;
20393;SDS011;10356;50.544;9.642;2024-02-16T01:09:07;2.53;;;1.60;;
20393;SDS011;10356;50.544;9.642;2024-02-16T01:11:33;5.20;;;1.80;;
20393;SDS011;10356;50.544;9.642;2024-02-16T01:14:00;5.87;;;2.07;;
20393;SDS011;10356;50.544;9.642;2024-02-16T01:16:26;3.50;;;1.90;;
20393;SDS011;10356;50.544;9.642;2024-02-16T01:18:53;7.13;;;2.10;;
20393;SDS011;10356;50.544;9.642;2024-02-16T01:21:21;4.30;;;2.37;;
20393;SDS011;10356;50.544;9.642;2024-02-16T01:23:50;3.80;;;2.00;;
20393;SDS011;10356;50.544;9.642;2024-02-16T01:26:16;6.20;;;2.33;;
20393;SDS011;10356;50.544;9.642;2024-02-16T01:28:43;5.57;;;1.70;;
20393;SDS011;10356;50.544;9.642;2024-02-16T01:31:09;4.00;;;2.13;;
20393;SDS011;10356;50.544;9.642;2024-02-16T01:33:37;6.07;;;2.23;;
20393;SDS011;10356;50.544;9.642;2024-02-16T01:36:03;4.03;;;2.17;;
20393;SDS011;10356;50.544;9.642;2024-02-16T01:38:30;3.27;;;2.20;;
20393;SDS011;10356;50.544;9.642;2024-02-16T01:40:58;4.20;;;1.90;;
20393;SDS011;10356;50.544;9.642;2024-02-16T01:43:25;4.03;;;2.33;;
20393;SDS011;10356;50.544;9.642;2024-02-16T01:45:52;3.67;;;1.90;;
20393;SDS011;10356;50.544;9.642;2024-02-16T01:48:19;4.10;;;2.00;;
20393;SDS011;10356;50.544;9.642;2024-02-16T01:50:45;5.07;;;2.13;;
20393;SDS011;10356;50.544;9.642;2024-02-16T01:53:15;4.45;;;2.33;;
20393;SDS011;10356;50.544;9.642;2024-02-16T01:55:43;3.97;;;2.07;;
20393;SDS011;10356;50.544;9.642;2024-02-16T01:58:11;5.03;;;2.07;;
20393;SDS011;10356;50.544;9.642;2024-02-16T02:00:39;5.77;;;1.83;;
20393;SDS011;10356;50.544;9.642;2024-02-16T02:03:06;3.17;;;1.90;;
20393;SDS011;10356;50.544;9.642;2024-02-16T02:05:32;6.05;;;2.22;;
20393;SDS011;10356;50.544;9.642;2024-02-16T02:08:08;2.50;;;1.83;;
20393;SDS011;10356;50.544;9.642;2024-02-16T02:10:35;3.13;;;1.93;;
20393;SDS011;10356;50.544;9.642;2024-02-16T02:13:01;4.30;;;2.30;;
20393;SDS011;10356;50.544;9.642;2024-02-16T02:15:29;6.30;;;2.13;;
20393;SDS011;10356;50.544;9.642;2024-02-16T02:17:56;3.20;;;1.90;;
20393;SDS011;10356;50.544;9.642;2024-02-16T02:20:23;5.43;;;2.50;;
20393;SDS011;10356;50.544;9.642;2024-02-16T02:22:51;5.47;;;2.15;;
20393;SDS011;10356;50.544;9.642;2024-02-16T02:25:18;6.70;;;2.27;;
20393;SDS011;10356;50.544;9.642;2024-02-16T02:27:44;4.30;;;2.17;;
20393;SDS011;10356;50.544;9.642;2024-02-16T02:30:11;3.30;;;1.60;;
20393;SDS011;10356;50.544;9.642;2024-02-16T02:32:38;5.87;;;2.37;;
20393;SDS011;10356;50.544;9.642;2024-02-16T02:35:05;5.38;;;2.08;;
20393;SDS011;10356;50.544;9.642;2024-02-16T02:37:33;5.87;;;2.23;;
20393;SDS011;10356;50.544;9.642;2024-02-16T02:40:01;5.43;;;2.30;;
20393;SDS011;10356;50.544;9.642;2024-02-16T02:42:31;3.50;;;2.30;;
20393;SDS011;10356;50.544;9.642;2024-02-16T02:44:57;3.42;;;1.95;;
20393;SDS011;10356;50.544;9.642;2024-02-16T02:47:23;3.60;;;2.03;;
20393;SDS011;10356;50.544;9.642;2024-02-16T02:49:50;5.00;;;2.30;;
20393;SDS011;10356;50.544;9.642;2024-02-16T02:52:16;2.77;;;2.00;;
20393;SDS011;10356;50.544;9.642;2024-02-16T02:54:43;5.50;;;2.10;;
20393;SDS011;10356;50.544;9.642;2024-02-16T02:57:11;2.90;;;1.88;;
20393;SDS011;10356;50.544;9.642;2024-02-16T02:59:38;5.03;;;2.67;;
20393;SDS011;10356;50.544;9.642;2024-02-16T03:02:04;4.73;;;2.40;;
20393;SDS011;10356;50.544;9.642;2024-02-16T03:04:31;3.72;;;2.00;;
20393;SDS011;10356;50.544;9.642;2024-02-16T03:06:58;4.57;;;1.90;;
20393;SDS011;10356;50.544;9.642;2024-02-16T03:09:25;4.03;;;2.03;;
20393;SDS011;10356;50.544;9.642;2024-02-16T03:11:51;3.30;;;1.70;;
20393;SDS011;10356;50.544;9.642;2024-02-16T03:14:19;3.50;;;1.87;;
20393;SDS011;10356;50.544;9.642;2024-02-16T03:16:45;2.65;;;1.83;;
20393;SDS011;10356;50.544;9.642;2024-02-16T03:19:12;3.47;;;2.07;;
20393;SDS011;10356;50.544;9.642;2024-02-16T03:21:38;3.17;;;2.10;;
20393;SDS011;10356;50.544;9.642;2024-02-16T03:24:05;3.57;;;2.23;;
20393;SDS011;10356;50.544;9.642;2024-02-16T03:26:32;4.70;;;2.10;;
20393;SDS011;10356;50.544;9.642;2024-02-16T03:28:58;2.80;;;1.97;;
20393;SDS011;10356;50.544;9.642;2024-02-16T03:31:26;3.93;;;1.90;;
20393;SDS011;10356;50.544;9.642;2024-02-16T03:33:53;3.77;;;2.13;;
20393;SDS011;10356;50.544;9.642;2024-02-16T03:36:20;2.40;;;2.07;;
20393;SDS011;10356;50.544;9.642;2024-02-16T03:38:47;5.47;;;2.20;;
20393;SDS011;10356;50.544;9.642;2024-02-16T03:41:17;4.63;;;1.90;;
20393;SDS011;10356;50.544;9.642;2024-02-16T03:43:45;3.00;;;2.42;;
20393;SDS011;10356;50.544;9.642;2024-02-16T03:46:11;5.20;;;2.08;;
20393;SDS011;10356;50.544;9.642;2024-02-16T03:48:39;5.80;;;2.60;;
20393;SDS011;10356;50.544;9.642;2024-02-16T03:51:06;5.37;;;2.30;;
20393;SDS011;10356;50.544;9.642;2024-02-16T03:53:32;2.60;;;2.13;;
20393;SDS011;10356;50.544;9.642;2024-02-16T03:55:59;4.77;;;2.10;;
20393;SDS011;10356;50.544;9.642;2024-02-16T03:58:25;3.83;;;2.27;;
20393;SDS011;10356;50.544;9.642;2024-02-16T04:00:52;5.03;;;2.50;;
20393;SDS011;10356;50.544;9.642;2024-02-16T04:03:19;3.22;;;2.30;;
20393;SDS011;10356;50.544;9.642;2024-02-16T04:05:47;5.17;;;2.30;;
20393;SDS011;10356;50.544;9.642;2024-02-16T04:08:13;5.00;;;2.70;;
20393;SDS011;10356;50.544;9.642;2024-02-16T04:10:39;3.27;;;2.10;;
20393;SDS011;10356;50.544;9.642;2024-02-16T04:13:06;7.30;;;2.27;;
20393;SDS011;10356;50.544;9.642;2024-02-16T04:15:32;3.47;;;1.97;;
20393;SDS011;10356;50.544;9.642;2024-02-16T04:17:59;7.87;;;2.50;;
20393;SDS011;10356;50.544;9.642;2024-02-16T04:20:25;3.75;;;2.58;;
20393;SDS011;10356;50.544;9.642;2024-02-16T04:22:53;5.18;;;2.35;;
20393;SDS011;10356;50.544;9.642;2024-02-16T04:25:20;3.93;;;2.20;;
20393;SDS011;10356;50.544;9.642;2024-02-16T04:27:46;6.17;;;2.30;;
20393;SDS011;10356;50.544;9.642;2024-02-16T04:30:13;4.23;;;2.57;;
20393;SDS011;10356;50.544;9.642;2024-02-16T04:32:39;4.70;;;2.07;;
20393;SDS011;10356;50.544;9.642;2024-02-16T04:35:06;4.97;;;2.00;;
20393;SDS011;10356;50.544;9.642;2024-02-16T04:37:36;4.23;;;2.03;;
20393;SDS011;10356;50.544;9.642;2024-02-16T04:40:05;3.27;;;2.13;;
20393;SDS011;10356;50.544;9.642;2024-02-16T04:42:33;7.63;;;2.93;;
20393;SDS011;10356;50.544;9.642;2024-02-16T04:44:59;5.17;;;3.03;;
20393;SDS011;10356;50.544;9.642;2024-02-16T04:47:26;5.10;;;3.33;;
20393;SDS011;10356;50.544;9.642;2024-02-16T04:49:53;6.37;;;3.00;;
20393;SDS011;10356;50.544;9.642;2024-02-16T04:52:19;7.67;;;3.70;;
20393;SDS011;10356;50.544;9.642;2024-02-16T04:54:47;5.93;;;3.40;;
20393;SDS011;10356;50.544;9.642;2024-02-16T04:57:14;4.47;;;2.93;;
20393;SDS011;10356;50.544;9.642;2024-02-16T04:59:41;4.07;;;2.40;;
20393;SDS011;10356;50.544;9.642;2024-02-16T05:02:07;6.13;;;2.70;;
20393;SDS011;10356;50.544;9.642;2024-02-16T05:04:34;4.73;;;3.13;;
20393;SDS011;10356;50.544;9.642;2024-02-16T05:07:00;5.70;;;2.67;;
20393;SDS011;10356;50.544;9.642;2024-02-16T05:09:27;6.53;;;3.77;;
20393;SDS011;10356;50.544;9.642;2024-02-16T05:11:53;5.80;;;2.73;;
20393;SDS011;10356;50.544;9.642;2024-02-16T05:14:21;4.83;;;2.80;;
20393;SDS011;10356;50.544;9.642;2024-02-16T05:16:49;4.93;;;2.33;;
20393;SDS011;10356;50.544;9.642;2024-02-16T05:19:16;6.57;;;2.90;;
20393;SDS011;10356;50.544;9.642;2024-02-16T05:21:43;5.57;;;2.57;;
20393;SDS011;10356;50.544;9.642;2024-02-16T05:24:09;5.60;;;2.40;;
20393;SDS011;10356;50.544;9.642;2024-02-16T05:26:36;3.60;;;2.10;;
20393;SDS011;10356;50.544;9.642;2024-02-16T05:29:02;3.97;;;2.53;;
20393;SDS011;10356;50.544;9.642;2024-02-16T05:31:30;5.43;;;2.87;;
20393;SDS011;10356;50.544;9.642;2024-02-16T05:33:57;6.30;;;3.20;;
20393;SDS011;10356;50.544;9.642;2024-02-16T05:36:23;5.37;;;2.80;;
20393;SDS011;10356;50.544;9.642;2024-02-16T05:38:52;5.60;;;3.10;;
20393;SDS011;10356;50.544;9.642;2024-02-16T05:41:20;6.77;;;3.10;;
20393;SDS011;10356;50.544;9.642;2024-02-16T05:43:47;5.30;;;3.10;;
20393;SDS011;10356;50.544;9.642;2024-02-16T05:46:14;7.13;;;2.80;;
20393;SDS011;10356;50.544;9.642;2024-02-16T05:48:42;5.10;;;3.10;;
20393;SDS011;10356;50.544;9.642;2024-02-16T05:51:10;7.03;;;3.43;;
20393;SDS011;10356;50.544;9.642;2024-02-16T05:53:38;5.67;;;2.90;;
20393;SDS011;10356;50.544;9.642;2024-02-16T05:56:05;5.03;;;3.20;;
20393;SDS011;10356;50.544;9.642;2024-02-16T05:58:31;4.83;;;2.83;;
20393;SDS011;10356;50.544;9.642;2024-02-16T06:00:58;10.10;;;3.00;;
20393;SDS011;10356;50.544;9.642;2024-02-16T06:03:25;5.87;;;3.23;;
20393;SDS011;10356;50.544;9.642;2024-02-16T06:05:53;3.33;;;2.97;;
20393;SDS011;10356;50.544;9.642;2024-02-16T06:08:20;5.67;;;2.70;;
20393;SDS011;10356;50.544;9.642;2024-02-16T06:10:46;5.07;;;3.13;;
20393;SDS011;10356;50.544;9.642;2024-02-16T06:13:16;4.27;;;3.07;;
20393;SDS011;10356;50.544;9.642;2024-02-16T06:15:42;5.63;;;3.03;;
20393;SDS011;10356;50.544;9.642;2024-02-16T06:18:09;4.23;;;2.93;;
20393;SDS011;10356;50.544;9.642;2024-02-16T06:20:35;3.83;;;2.87;;
20393;SDS011;10356;50.544;9.642;2024-02-16T06:23:03;6.90;;;2.80;;
20393;SDS011;10356;50.544;9.642;2024-02-16T06:25:30;6.00;;;2.90;;
20393;SDS011;10356;50.544;9.642;2024-02-16T06:27:57;4.73;;;3.20;;
20393;SDS011;10356;50.544;9.642;2024-02-16T06:30:23;5.77;;;3.03;;
20393;SDS011;10356;50.544;9.642;2024-02-16T06:32:50;7.30;;;3.27;;
20393;SDS011;10356;50.544;9.642;2024-02-16T06:35:16;8.27;;;3.00;;
20393;SDS011;10356;50.544;9.642;2024-02-16T06:37:43;6.30;;;3.53;;
20393;SDS011;10356;50.544;9.642;2024-02-16T06:40:11;7.93;;;3.77;;
20393;SDS011;10356;50.544;9.642;2024-02-16T06:42:38;5.00;;;3.60;;
20393;SDS011;10356;50.544;9.642;2024-02-16T06:45:05;8.23;;;3.30;;
20393;SDS011;10356;50.544;9.642;2024-02-16T06:47:32;7.20;;;3.93;;
20393;SDS011;10356;50.544;9.642;2024-02-16T06:49:59;4.70;;;3.30;;
20393;SDS011;10356;50.544;9.642;2024-02-16T06:52:25;7.83;;;3.80;;
20393;SDS011;10356;50.544;9.642;2024-02-16T06:54:52;6.00;;;3.90;;
20393;SDS011;10356;50.544;9.642;2024-02-16T06:57:19;4.33;;;3.10;;
20393;SDS011;10356;50.544;9.642;2024-02-16T06:59:46;4.33;;;3.27;;
20393;SDS011;10356;50.544;9.642;2024-02-16T07:02:13;8.43;;;4.23;;
20393;SDS011;10356;50.544;9.642;2024-02-16T07:04:40;9.20;;;5.03;;
20393;SDS011;10356;50.544;9.642;2024-02-16T07:07:06;7.90;;;4.83;;
20393;SDS011;10356;50.544;9.642;2024-02-16T07:09:33;7.40;;;4.73;;
20393;SDS011;10356;50.544;9.642;2024-02-16T07:12:00;8.47;;;5.10;;
20393;SDS011;10356;50.544;9.642;2024-02-16T07:14:29;7.30;;;5.17;;
20393;SDS011;10356;50.544;9.642;2024-02-16T07:16:55;5.40;;;4.60;;
20393;SDS011;10356;50.544;9.642;2024-02-16T07:19:22;9.90;;;4.93;;
20393;SDS011;10356;50.544;9.642;2024-02-16T07:21:48;6.40;;;4.93;;
20393;SDS011;10356;50.544;9.642;2024-02-16T07:24:15;9.20;;;4.93;;
20393;SDS011;10356;50.544;9.642;2024-02-16T07:26:41;7.83;;;4.33;;
20393;SDS011;10356;50.544;9.642;2024-02-16T07:29:08;6.13;;;4.33;;
20393;SDS011;10356;50.544;9.642;2024-02-16T07:31:36;6.43;;;4.33;;
20393;SDS011;10356;50.544;9.642;2024-02-16T07:34:02;7.97;;;4.50;;
20393;SDS011;10356;50.544;9.642;2024-02-16T07:36:29;10.33;;;4.77;;
20393;SDS011;10356;50.544;9.642;2024-02-16T07:38:57;11.20;;;5.03;;
20393;SDS011;10356;50.544;9.642;2024-02-16T07:41:23;11.73;;;4.80;;
20393;SDS011;10356;50.544;9.642;2024-02-16T07:43:49;13.23;;;5.47;;
20393;SDS011;10356;50.544;9.642;2024-02-16T07:46:16;10.57;;;4.63;;
20393;SDS011;10356;50.544;9.642;2024-02-16T07:48:44;7.97;;;4.57;;
20393;SDS011;10356;50.544;9.642;2024-02-16T07:51:11;7.70;;;4.60;;
20393;SDS011;10356;50.544;9.642;2024-02-16T07:53:37;8.83;;;5.00;;
20393;SDS011;10356;50.544;9.642;2024-02-16T07:56:06;9.47;;;4.83;;
20393;SDS011;10356;50.544;9.642;2024-02-16T07:58:33;6.60;;;4.20;;
20393;SDS011;10356;50.544;9.642;2024-02-16T08:00:59;5.63;;;4.03;;
20393;SDS011;10356;50.544;9.642;2024-02-16T08:03:26;7.07;;;4.70;;
20393;SDS011;10356;50.544;9.642;2024-02-16T08:05:53;7.57;;;5.47;;
20393;SDS011;10356;50.544;9.642;2024-02-16T08:08:21;9.23;;;4.53;;
20393;SDS011;10356;50.544;9.642;2024-02-16T08:10:48;7.25;;;4.30;;
20393;SDS011;10356;50.544;9.642;2024-02-16T08:13:15;7.78;;;3.88;;
20393;SDS011;10356;50.544;9.642;2024-02-16T08:15:43;7.97;;;4.28;;
20393;SDS011;10356;50.544;9.642;2024-02-16T08:18:09;8.75;;;5.20;;
20393;SDS011;10356;50.544;9.642;2024-02-16T08:20:36;5.03;;;4.00;;
20393;SDS011;10356;50.544;9.642;2024-02-16T08:23:05;5.25;;;3.40;;
20393;SDS011;10356;50.544;9.642;2024-02-16T08:25:32;8.03;;;3.60;;
20393;SDS011;10356;50.544;9.642;2024-02-16T08:27:58;5.63;;;4.00;;
20393;SDS011;10356;50.544;9.642;2024-02-16T08:30:25;5.10;;;3.47;;
20393;SDS011;10356;50.544;9.642;2024-02-16T08:32:51;6.30;;;3.80;;
20393;SDS011;10356;50.544;9.642;2024-02-16T08:35:18;5.90;;;3.90;;
20393;SDS011;10356;50.544;9.642;2024-02-16T08:37:45;6.30;;;4.43;;
20393;SDS011;10356;50.544;9.642;2024-02-16T08:40:13;7.10;;;3.97;;
20393;SDS011;10356;50.544;9.642;2024-02-16T08:42:40;5.70;;;3.80;;
20393;SDS011;10356;50.544;9.642;2024-02-16T08:45:07;7.18;;;5.13;;
20393;SDS011;10356;50.544;9.642;2024-02-16T08:47:34;10.05;;;5.28;;
20393;SDS011;10356;50.544;9.642;2024-02-16T08:50:00;6.28;;;3.63;;
20393;SDS011;10356;50.544;9.642;2024-02-16T08:52:27;5.23;;;3.30;;
20393;SDS011;10356;50.544;9.642;2024-02-16T08:54:54;4.18;;;3.42;;
20393;SDS011;10356;50.544;9.642;2024-02-16T08:57:21;8.47;;;3.37;;
20393;SDS011;10356;50.544;9.642;2024-02-16T08:59:48;3.72;;;3.35;;
20393;SDS011;10356;50.544;9.642;2024-02-16T09:02:15;6.88;;;3.58;;
20393;SDS011;10356;50.544;9.642;2024-02-16T09:04:41;4.88;;;3.30;;
20393;SDS011;10356;50.544;9.642;2024-02-16T09:07:08;4.55;;;3.05;;
20393;SDS011;10356;50.544;9.642;2024-02-16T09:09:35;6.85;;;3.83;;
20393;SDS011;10356;50.544;9.642;2024-02-16T09:12:02;7.75;;;3.42;;
20393;SDS011;10356;50.544;9.642;2024-02-16T09:14:30;6.80;;;4.20;;
20393;SDS011;10356;50.544;9.642;2024-02-16T09:16:57;4.45;;;2.60;;
20393;SDS011;10356;50.544;9.642;2024-02-16T09:19:23;11.50;;;10.50;;
20393;SDS011;10356;50.544;9.642;2024-02-16T09:21:50;4.53;;;3.20;;
20393;SDS011;10356;50.544;9.642;2024-02-16T09:24:19;5.38;;;3.00;;
20393;SDS011;10356;50.544;9.642;2024-02-16T09:26:45;7.10;;;3.28;;
20393;SDS011;10356;50.544;9.642;2024-02-16T09:29:12;7.13;;;3.00;;
20393;SDS011;10356;50.544;9.642;2024-02-16T09:31:40;6.78;;;2.65;;
20393;SDS011;10356;50.544;9.642;2024-02-16T09:34:07;8.55;;;4.30;;
20393;SDS011;10356;50.544;9.642;2024-02-16T09:36:34;4.43;;;2.88;;
20393;SDS011;10356;50.544;9.642;2024-02-16T09:39:01;5.40;;;3.30;;
20393;SDS011;10356;50.544;9.642;2024-02-16T09:41:28;3.55;;;2.47;;
20393;SDS011;10356;50.544;9.642;2024-02-16T09:43:54;3.85;;;3.17;;
20393;SDS011;10356;50.544;9.642;2024-02-16T09:46:21;2.88;;;2.25;;
20393;SDS011;10356;50.544;9.642;2024-02-16T09:48:50;4.60;;;2.72;;
20393;SDS011;10356;50.544;9.642;2024-02-16T09:51:18;4.00;;;2.40;;
20393;SDS011;10356;50.544;9.642;2024-02-16T09:53:46;5.75;;;2.55;;
20393;SDS011;10356;50.544;9.642;2024-02-16T09:56:18;4.28;;;2.80;;
20393;SDS011;10356;50.544;9.642;2024-02-16T09:58:45;3.08;;;2.30;;
20393;SDS011;10356;50.544;9.642;2024-02-16T10:01:17;2.92;;;2.35;;
20393;SDS011;10356;50.544;9.642;2024-02-16T10:03:44;4.40;;;2.22;;
20393;SDS011;10356;50.544;9.642;2024-02-16T10:06:12;6.15;;;2.45;;
20393;SDS011;10356;50.544;9.642;2024-02-16T10:08:47;4.15;;;2.33;;
20393;SDS011;10356;50.544;9.642;2024-02-16T10:11:14;3.50;;;2.53;;
20393;SDS011;10356;50.544;9.642;2024-02-16T10:13:41;5.13;;;3.25;;
20393;SDS011;10356;50.544;9.642;2024-02-16T10:16:09;5.75;;;2.72;;
20393;SDS011;10356;50.544;9.642;2024-02-16T10:18:39;4.07;;;2.40;;
20393;SDS011;10356;50.544;9.642;2024-02-16T10:21:05;4.40;;;2.80;;
20393;SDS011;10356;50.544;9.642;2024-02-16T10:23:34;2.95;;;2.25;;
20393;SDS011;10356;50.544;9.642;2024-02-16T10:26:00;4.25;;;2.50;;
20393;SDS011;10356;50.544;9.642;2024-02-16T10:28:28;6.22;;;2.40;;
20393;SDS011;10356;50.544;9.642;2024-02-16T10:30:57;8.00;;;2.45;;
20393;SDS011;10356;50.544;9.642;2024-02-16T10:33:26;6.18;;;2.53;;
20393;SDS011;10356;50.544;9.642;2024-02-16T10:35:54;2.90;;;2.58;;
20393;SDS011;10356;50.544;9.642;2024-02-16T10:38:22;4.25;;;2.72;;
20393;SDS011;10356;50.544;9.642;2024-02-16T10:40:50;4.70;;;2.63;;
20393;SDS011;10356;50.544;9.642;2024-02-16T10:43:17;3.05;;;2.22;;
20393;SDS011;10356;50.544;9.642;2024-02-16T10:45:44;4.18;;;2.80;;
20393;SDS011;10356;50.544;9.642;2024-02-16T10:48:12;5.53;;;3.00;;
20393;SDS011;10356;50.544;9.642;2024-02-16T10:50:40;7.18;;;2.58;;
20393;SDS011;10356;50.544;9.642;2024-02-16T10:53:09;5.13;;;2.58;;
20393;SDS011;10356;50.544;9.642;2024-02-16T10:55:40;4.47;;;2.20;;
20393;SDS011;10356;50.544;9.642;2024-02-16T10:58:09;3.95;;;2.75;;
20393;SDS011;10356;50.544;9.642;2024-02-16T11:00:47;8.13;;;2.75;;
20393;SDS011;10356;50.544;9.642;2024-02-16T11:03:16;5.38;;;2.38;;
20393;SDS011;10356;50.544;9.642;2024-02-16T11:05:42;3.40;;;2.30;;
20393;SDS011;10356;50.544;9.642;2024-02-16T11:08:11;3.45;;;2.00;;
20393;SDS011;10356;50.544;9.642;2024-02-16T11:10:39;4.05;;;2.20;;
20393;SDS011;10356;50.544;9.642;2024-02-16T11:13:08;4.10;;;2.42;;
20393;SDS011;10356;50.544;9.642;2024-02-16T11:15:34;4.63;;;2.33;;
20393;SDS011;10356;50.544;9.642;2024-02-16T11:18:03;3.47;;;2.38;;
20393;SDS011;10356;50.544;9.642;2024-02-16T11:20:36;2.88;;;2.10;;
20393;SDS011;10356;50.544;9.642;2024-02-16T11:23:08;3.95;;;1.80;;
20393;SDS011;10356;50.544;9.642;2024-02-16T11:25:36;4.50;;;1.95;;
20393;SDS011;10356;50.544;9.642;2024-02-16T11:28:03;4.82;;;2.15;;
20393;SDS011;10356;50.544;9.642;2024-02-16T11:30:33;4.25;;;1.95;;
20393;SDS011;10356;50.544;9.642;2024-02-16T11:33:00;3.63;;;2.22;;
20393;SDS011;10356;50.544;9.642;2024-02-16T11:35:27;2.85;;;2.13;;
20393;SDS011;10356;50.544;9.642;2024-02-16T11:37:55;4.50;;;2.15;;
20393;SDS011;10356;50.544;9.642;2024-02-16T11:40:22;4.30;;;2.15;;
20393;SDS011;10356;50.544;9.642;2024-02-16T11:42:49;5.68;;;2.28;;
20393;SDS011;10356;50.544;9.642;2024-02-16T11:45:23;4.85;;;2.30;;
20393;SDS011;10356;50.544;9.642;2024-02-16T11:47:51;3.88;;;2.30;;
20393;SDS011;10356;50.544;9.642;2024-02-16T11:50:29;4.22;;;2.25;;
20393;SDS011;10356;50.544;9.642;2024-02-16T11:52:56;4.68;;;2.25;;
20393;SDS011;10356;50.544;9.642;2024-02-16T11:55:23;3.85;;;2.25;;
20393;SDS011;10356;50.544;9.642;2024-02-16T11:57:50;3.53;;;2.15;;
20393;SDS011;10356;50.544;9.642;2024-02-16T12:00:17;4.63;;;2.15;;
20393;SDS011;10356;50.544;9.642;2024-02-16T12:02:43;3.38;;;1.95;;
20393;SDS011;10356;50.544;9.642;2024-02-16T12:05:14;5.18;;;2.60;;
20393;SDS011;10356;50.544;9.642;2024-02-16T12:07:41;5.53;;;2.22;;
20393;SDS011;10356;50.544;9.642;2024-02-16T12:10:07;6.18;;;2.47;;
20393;SDS011;10356;50.544;9.642;2024-02-16T12:12:35;4.35;;;1.90;;
20393;SDS011;10356;50.544;9.642;2024-02-16T12:15:03;8.60;;;2.40;;
20393;SDS011;10356;50.544;9.642;2024-02-16T12:17:32;2.75;;;2.00;;
20393;SDS011;10356;50.544;9.642;2024-02-16T12:19:58;3.33;;;1.90;;
20393;SDS011;10356;50.544;9.642;2024-02-16T12:22:26;6.00;;;2.10;;
20393;SDS011;10356;50.544;9.642;2024-02-16T12:24:52;5.30;;;2.10;;
20393;SDS011;10356;50.544;9.642;2024-02-16T12:27:19;4.05;;;2.15;;
20393;SDS011;10356;50.544;9.642;2024-02-16T12:29:45;3.33;;;1.92;;
20393;SDS011;10356;50.544;9.642;2024-02-16T12:32:13;3.45;;;2.22;;
20393;SDS011;10356;50.544;9.642;2024-02-16T12:34:43;5.28;;;2.20;;
20393;SDS011;10356;50.544;9.642;2024-02-16T12:37:09;2.97;;;1.98;;
20393;SDS011;10356;50.544;9.642;2024-02-16T12:39:37;3.47;;;1.65;;
20393;SDS011;10356;50.544;9.642;2024-02-16T12:42:05;2.28;;;1.60;;
20393;SDS011;10356;50.544;9.642;2024-02-16T12:44:31;3.80;;;1.95;;
20393;SDS011;10356;50.544;9.642;2024-02-16T12:46:57;3.95;;;1.98;;
20393;SDS011;10356;50.544;9.642;2024-02-16T12:49:24;4.13;;;2.22;;
20393;SDS011;10356;50.544;9.642;2024-02-16T12:51:51;4.50;;;2.00;;
20393;SDS011;10356;50.544;9.642;2024-02-16T12:54:18;5.13;;;2.20;;
20393;SDS011;10356;50.544;9.642;2024-02-16T12:56:46;5.10;;;2.42;;
20393;SDS011;10356;50.544;9.642;2024-02-16T12:59:13;5.32;;;2.58;;
20393;SDS011;10356;50.544;9.642;2024-02-16T13:01:39;5.68;;;2.15;;
20393;SDS011;10356;50.544;9.642;2024-02-16T13:04:07;4.53;;;2.03;;
20393;SDS011;10356;50.544;9.642;2024-02-16T13:06:34;7.07;;;2.58;;
20393;SDS011;10356;50.544;9.642;2024-02-16T13:09:02;7.00;;;3.22;;
20393;SDS011;10356;50.544;9.642;2024-02-16T13:11:29;7.72;;;2.30;;
20393;SDS011;10356;50.544;9.642;2024-02-16T13:13:57;5.18;;;2.28;;
20393;SDS011;10356;50.544;9.642;2024-02-16T13:16:23;4.07;;;2.08;;
20393;SDS011;10356;50.544;9.642;2024-02-16T13:18:50;4.05;;;1.83;;
20393;SDS011;10356;50.544;9.642;2024-02-16T13:21:16;11.93;;;2.50;;
20393;SDS011;10356;50.544;9.642;2024-02-16T13:23:43;6.82;;;3.78;;
20393;SDS011;10356;50.544;9.642;2024-02-16T13:26:09;5.60;;;3.50;;
20393;SDS011;10356;50.544;9.642;2024-02-16T13:28:36;5.75;;;1.98;;
20393;SDS011;10356;50.544;9.642;2024-02-16T13:31:03;4.65;;;2.13;;
20393;SDS011;10356;50.544;9.642;2024-02-16T13:33:30;8.63;;;5.70;;
20393;SDS011;10356;50.544;9.642;2024-02-16T13:35:57;3.90;;;2.42;;
20393;SDS011;10356;50.544;9.642;2024-02-16T13:38:23;5.38;;;1.92;;
20393;SDS011;10356;50.544;9.642;2024-02-16T13:40:50;10.82;;;7.97;;
20393;SDS011;10356;50.544;9.642;2024-02-16T13:43:16;73.10;;;53.70;;
20393;SDS011;10356;50.544;9.642;2024-02-16T13:45:47;48.33;;;36.45;;
20393;SDS011;10356;50.544;9.642;2024-02-16T13:48:16;29.02;;;23.50;;
20393;SDS011;10356;50.544;9.642;2024-02-16T13:50:44;6.95;;;4.45;;
20393;SDS011;10356;50.544;9.642;2024-02-16T13:53:11;4.18;;;2.42;;
20393;SDS011;10356;50.544;9.642;2024-02-16T13:55:38;9.02;;;2.67;;
20393;SDS011;10356;50.544;9.642;2024-02-16T13:58:05;8.43;;;2.40;;
20393;SDS011;10356;50.544;9.642;2024-02-16T14:00:31;6.50;;;2.53;;
20393;SDS011;10356;50.544;9.642;2024-02-16T14:02:58;7.57;;;2.38;;
20393;SDS011;10356;50.544;9.642;2024-02-16T14:05:26;5.30;;;2.70;;
20393;SDS011;10356;50.544;9.642;2024-02-16T14:07:52;6.93;;;2.85;;
20393;SDS011;10356;50.544;9.642;2024-02-16T14:10:19;7.25;;;2.30;;
20393;SDS011;10356;50.544;9.642;2024-02-16T14:12:47;7.88;;;2.40;;
20393;SDS011;10356;50.544;9.642;2024-02-16T14:15:13;8.73;;;2.85;;
20393;SDS011;10356;50.544;9.642;2024-02-16T14:17:41;4.55;;;2.08;;
20393;SDS011;10356;50.544;9.642;2024-02-16T14:20:08;7.78;;;2.33;;
20393;SDS011;10356;50.544;9.642;2024-02-16T14:22:36;5.50;;;2.30;;
20393;SDS011;10356;50.544;9.642;2024-02-16T14:25:03;5.22;;;2.72;;
20393;SDS011;10356;50.544;9.642;2024-02-16T14:27:30;5.82;;;2.45;;
20393;SDS011;10356;50.544;9.642;2024-02-16T14:29:57;5.70;;;2.20;;
20393;SDS011;10356;50.544;9.642;2024-02-16T14:32:23;11.25;;;2.80;;
20393;SDS011;10356;50.544;9.642;2024-02-16T14:34:50;4.60;;;2.17;;
20393;SDS011;10356;50.544;9.642;2024-02-16T14:37:16;6.22;;;2.05;;
20393;SDS011;10356;50.544;9.642;2024-02-16T14:39:44;6.18;;;2.78;;
20393;SDS011;10356;50.544;9.642;2024-02-16T14:42:11;6.07;;;2.40;;
20393;SDS011;10356;50.544;9.642;2024-02-16T14:44:38;7.22;;;2.28;;
20393;SDS011;10356;50.544;9.642;2024-02-16T14:47:05;7.55;;;2.67;;